Little Plymouth, Virginia
Current Conditions -  °F | °C
As of 11:15 AM on Wednesday 26 Nov 2014 (Local Time) from KFYJ Reporting Station
Overcast Overcast  
Wind Chill: 39°   Ceiling: 900
Heat Index: 46°   Visibility: 3mi
Dew Point: 43°   Wind: 14mph
Humidity: 90%   Direction: 10°N
Pressure: 29.92"   Gusts: 21mph
Location:  37.63°N, 76.79°W
Report Text: KFYJ 261615Z AUTO 01012G18KT 340V040 3SM BKN009 BKN013 OVC018 08/06 A2992 RMK AO2 P0002 T00760060
Loading
Personal Weather Stations






























Interactive Weather Map New forecast layout! Learn more

10-Day Weather Forecast

Advertisements
Track Severe Weather on mobile